createdAt,value
2023-06-12T00:00:48.429Z,53.76
2023-06-12T00:06:49.633Z,53.54
2023-06-12T00:12:50.901Z,54.51
2023-06-12T00:18:53.021Z,55.10
2023-06-12T00:24:54.264Z,56.16
2023-06-12T00:30:55.699Z,56.55
2023-06-12T00:36:58.104Z,56.64
2023-06-12T00:42:59.337Z,57.07
2023-06-12T00:49:02.552Z,57.35
2023-06-12T00:55:04.058Z,57.64
2023-06-12T01:01:05.338Z,58.30
2023-06-12T01:07:07.099Z,58.55
2023-06-12T01:13:10.921Z,59.15
2023-06-12T01:19:12.164Z,59.22
2023-06-12T01:25:14.214Z,60.07
2023-06-12T01:31:15.479Z,59.88
2023-06-12T01:37:16.764Z,60.14
2023-06-12T01:43:18.023Z,60.20
2023-06-12T01:49:19.231Z,60.83
2023-06-12T01:55:22.362Z,60.67
2023-06-12T02:01:25.025Z,61.77
2023-06-12T02:07:26.471Z,61.94
2023-06-12T02:13:27.709Z,62.05
2023-06-12T02:19:29.744Z,62.52
2023-06-12T02:25:33.278Z,62.77
2023-06-12T02:31:34.799Z,62.93
2023-06-12T02:37:36.304Z,62.79
2023-06-12T02:43:37.601Z,63.21
2023-06-12T02:49:45.153Z,63.12
2023-06-12T02:55:46.587Z,62.51
2023-06-12T03:01:48.038Z,63.13
2023-06-12T03:07:49.644Z,62.46
2023-06-12T03:13:51.086Z,62.06
2023-06-12T03:19:52.292Z,60.83
2023-06-12T03:25:53.489Z,60.81
2023-06-12T03:31:56.062Z,60.73
2023-06-12T03:37:57.282Z,61.09
2023-06-12T03:43:58.577Z,61.39
2023-06-12T03:49:59.791Z,62.36
2023-06-12T03:56:01.080Z,62.03
2023-06-12T04:02:02.508Z,61.64
2023-06-12T04:08:03.810Z,61.53
2023-06-12T04:14:05.006Z,60.53
2023-06-12T04:20:07.777Z,60.04
2023-06-12T04:26:09.086Z,60.75
2023-06-12T04:32:10.431Z,60.31
2023-06-12T04:38:12.028Z,59.21
2023-06-12T04:44:13.612Z,58.95
2023-06-12T04:50:15.112Z,58.67
2023-06-12T04:56:21.386Z,59.28
2023-06-12T05:02:22.946Z,58.90
2023-06-12T05:08:24.229Z,57.84
2023-06-12T05:14:25.565Z,57.70
2023-06-12T05:20:26.938Z,57.22
2023-06-12T05:26:28.176Z,56.51
2023-06-12T05:32:29.400Z,55.83
2023-06-12T05:38:30.958Z,56.18
2023-06-12T05:44:32.397Z,55.63
2023-06-12T05:50:33.731Z,55.10
2023-06-12T05:56:34.981Z,54.43
2023-06-12T06:02:36.540Z,53.58
2023-06-12T06:08:37.909Z,52.53
2023-06-12T06:14:40.310Z,51.53
2023-06-12T06:20:41.533Z,51.00
2023-06-12T06:26:42.753Z,49.89
2023-06-12T06:32:44.122Z,48.79
2023-06-12T06:38:45.344Z,48.40
2023-06-12T06:44:46.584Z,47.00
2023-06-12T06:50:47.825Z,46.50
2023-06-12T06:56:49.739Z,46.49
2023-06-12T07:02:51.058Z,46.19
2023-06-12T07:08:54.379Z,44.34
2023-06-12T07:14:55.971Z,44.32
2023-06-12T07:20:57.190Z,45.08
2023-06-12T07:26:58.411Z,44.62
2023-06-12T07:32:59.648Z,44.25
2023-06-12T07:39:01.194Z,43.45
2023-06-12T07:45:02.475Z,42.52
2023-06-12T07:51:03.737Z,41.36
2023-06-12T07:57:05.448Z,40.05
2023-06-12T08:03:25.217Z,37.81
2023-06-12T08:09:31.036Z,37.07
2023-06-12T08:15:32.350Z,36.98
2023-06-12T08:21:33.570Z,36.42
2023-06-12T08:27:34.915Z,35.86
2023-06-12T08:33:36.241Z,35.11
2023-06-12T08:39:37.619Z,35.88
2023-06-12T08:45:38.872Z,36.17
2023-06-12T08:51:40.091Z,35.49
2023-06-12T08:57:42.387Z,35.41
2023-06-12T09:03:43.745Z,35.33
2023-06-12T09:09:46.203Z,34.26
2023-06-12T09:15:47.544Z,33.80
2023-06-12T09:21:49.075Z,33.74
2023-06-12T09:27:51.074Z,32.77
2023-06-12T09:33:53.548Z,33.38
2023-06-12T09:39:54.887Z,32.50
2023-06-12T09:45:56.550Z,33.74
2023-06-12T09:51:59.694Z,31.34
2023-06-12T09:58:03.141Z,30.85
2023-06-12T10:04:04.903Z,29.14
2023-06-12T10:10:08.860Z,28.66
2023-06-12T10:16:10.134Z,26.72
2023-06-12T10:22:12.089Z,25.40
2023-06-12T10:28:13.327Z,24.34
2023-06-12T10:34:16.428Z,23.33
2023-06-12T10:40:23.988Z,23.10
2023-06-12T10:46:30.994Z,22.84
2023-06-12T10:52:32.414Z,23.10
2023-06-12T10:58:33.624Z,22.58
2023-06-12T11:04:34.935Z,22.47
2023-06-12T11:10:36.209Z,22.55
2023-06-12T11:16:37.505Z,21.22
2023-06-12T11:22:38.744Z,20.80
2023-06-12T11:28:40.005Z,19.58
2023-06-12T11:34:44.875Z,19.46
2023-06-12T11:40:46.201Z,19.53
2023-06-12T11:46:47.569Z,19.20
2023-06-12T11:52:50.029Z,19.08
2023-06-12T11:58:51.390Z,17.61
2023-06-12T12:04:52.655Z,17.75
2023-06-12T12:10:53.887Z,18.01
2023-06-12T12:16:55.088Z,17.96
2023-06-12T12:22:56.568Z,17.54
2023-06-12T12:28:58.108Z,16.98
2023-06-12T12:34:59.627Z,17.30
2023-06-12T12:41:01.117Z,16.63
2023-06-12T12:47:02.359Z,16.27
2023-06-12T12:53:03.603Z,16.19
2023-06-12T12:59:07.914Z,16.02
2023-06-12T13:05:09.278Z,14.98
2023-06-12T13:11:10.610Z,14.46
2023-06-12T13:17:11.897Z,15.75
2023-06-12T13:23:13.123Z,15.33
2023-06-12T13:29:14.385Z,14.51
2023-06-12T13:35:15.756Z,14.04
2023-06-12T13:41:17.882Z,14.52
2023-06-12T13:47:19.111Z,14.10
2023-06-12T13:53:20.498Z,14.26
2023-06-12T13:59:21.827Z,14.95
2023-06-12T14:05:23.215Z,14.53
2023-06-12T14:11:24.540Z,15.04
2023-06-12T14:17:25.902Z,14.71
2023-06-12T14:23:27.429Z,14.50
2023-06-12T14:29:28.627Z,14.23
2023-06-12T14:35:30.015Z,14.23
2023-06-12T14:41:31.232Z,14.11
2023-06-12T14:47:32.496Z,14.35
2023-06-12T14:53:34.512Z,13.10
2023-06-12T14:59:35.901Z,12.95
2023-06-12T15:05:37.164Z,12.83
2023-06-12T15:11:38.358Z,13.22
2023-06-12T15:17:39.760Z,13.23
2023-06-12T15:23:41.358Z,13.37
2023-06-12T15:29:42.644Z,14.20
2023-06-12T15:35:45.909Z,14.14
2023-06-12T15:41:47.132Z,13.56
2023-06-12T15:47:48.398Z,14.64
2023-06-12T15:53:49.723Z,14.84
2023-06-12T15:59:51.153Z,14.58
2023-06-12T16:05:52.451Z,14.93
2023-06-12T16:11:53.700Z,14.90
2023-06-12T16:17:55.031Z,14.96
2023-06-12T16:23:56.304Z,15.49
2023-06-12T16:29:57.574Z,15.37
2023-06-12T16:35:58.830Z,14.70
2023-06-12T16:42:00.145Z,14.47
2023-06-12T16:48:01.520Z,14.77
2023-06-12T16:54:02.815Z,15.04
2023-06-12T17:00:04.623Z,15.76
2023-06-12T17:06:05.828Z,15.54
2023-06-12T17:12:07.346Z,15.75
2023-06-12T17:18:08.642Z,15.77
2023-06-12T17:24:10.044Z,16.06
2023-06-12T17:30:11.685Z,17.06
2023-06-12T17:36:13.046Z,17.33
2023-06-12T17:42:14.464Z,17.67
2023-06-12T17:48:15.852Z,18.81
2023-06-12T17:54:17.100Z,19.62
2023-06-12T18:00:18.388Z,20.69
2023-06-12T18:06:19.611Z,22.32
2023-06-12T18:12:20.904Z,23.37
2023-06-12T18:18:22.245Z,25.21
2023-06-12T18:24:24.709Z,25.69
2023-06-12T18:30:26.046Z,26.51
2023-06-12T18:36:27.358Z,27.57
2023-06-12T18:42:28.588Z,28.24
2023-06-12T18:48:29.803Z,28.54
2023-06-12T18:54:31.147Z,29.19
2023-06-12T19:00:32.495Z,29.90
2023-06-12T19:06:34.930Z,29.60
2023-06-12T19:12:36.482Z,29.43
2023-06-12T19:18:37.701Z,30.66
2023-06-12T19:24:39.554Z,30.73
2023-06-12T19:30:40.876Z,31.64
2023-06-12T19:36:42.191Z,31.53
2023-06-12T19:42:43.392Z,31.86
2023-06-12T19:48:44.832Z,32.36
2023-06-12T19:54:46.057Z,33.66
2023-06-12T20:00:47.353Z,34.07
2023-06-12T20:06:48.590Z,34.92
2023-06-12T20:12:49.827Z,35.58
2023-06-12T20:18:51.073Z,35.66
2023-06-12T20:24:52.611Z,35.86
2023-06-12T20:30:53.967Z,36.84
2023-06-12T20:36:55.278Z,37.34
2023-06-12T20:42:56.496Z,38.08
2023-06-12T20:48:57.728Z,38.46
2023-06-12T20:54:58.972Z,38.20
2023-06-12T21:01:00.263Z,38.65
2023-06-12T21:07:01.522Z,38.50
2023-06-12T21:13:02.719Z,38.81
2023-06-12T21:19:04.005Z,39.32
2023-06-12T21:25:05.304Z,39.56
2023-06-12T21:31:06.658Z,39.99
2023-06-12T21:37:22.164Z,40.50
2023-06-12T21:43:24.761Z,41.47
2023-06-12T21:49:26.114Z,41.70
2023-06-12T21:55:27.345Z,42.31
2023-06-12T22:01:30.438Z,41.98
2023-06-12T22:07:31.876Z,42.50
2023-06-12T22:13:33.524Z,42.88
2023-06-12T22:19:34.858Z,43.15
2023-06-12T22:25:36.374Z,43.66
2023-06-12T22:31:37.759Z,43.96
2023-06-12T22:37:38.992Z,44.15
2023-06-12T22:43:40.226Z,44.01
2023-06-12T22:49:41.424Z,44.87
2023-06-12T22:55:42.838Z,44.83
2023-06-12T23:01:44.304Z,45.73
2023-06-12T23:07:47.018Z,45.84
2023-06-12T23:13:48.247Z,46.59
2023-06-12T23:19:50.798Z,47.52
2023-06-12T23:25:54.970Z,47.62
2023-06-12T23:31:56.558Z,49.24
2023-06-12T23:37:58.002Z,49.24
2023-06-12T23:43:59.235Z,50.47
2023-06-12T23:50:00.540Z,51.20
2023-06-12T23:56:01.781Z,51.49
